sensor_id;sensor_type;location;lat;lon;timestamp;P1;durP1;ratioP1;P2;durP2;ratioP2
46429;SDS011;32131;53.454;-6.180;2022-09-03T00:00:55;9.90;;;5.57;;
46429;SDS011;32131;53.454;-6.180;2022-09-03T00:03:28;13.23;;;5.43;;
46429;SDS011;32131;53.454;-6.180;2022-09-03T00:06:06;10.35;;;5.72;;
46429;SDS011;32131;53.454;-6.180;2022-09-03T00:08:41;11.88;;;6.15;;
46429;SDS011;32131;53.454;-6.180;2022-09-03T00:11:15;11.35;;;6.05;;
46429;SDS011;32131;53.454;-6.180;2022-09-03T00:13:48;12.05;;;5.97;;
46429;SDS011;32131;53.454;-6.180;2022-09-03T00:16:23;13.15;;;6.38;;
46429;SDS011;32131;53.454;-6.180;2022-09-03T00:18:56;12.75;;;6.53;;
46429;SDS011;32131;53.454;-6.180;2022-09-03T00:21:31;11.43;;;5.68;;
46429;SDS011;32131;53.454;-6.180;2022-09-03T00:24:06;9.65;;;5.20;;
46429;SDS011;32131;53.454;-6.180;2022-09-03T00:26:41;6.70;;;3.83;;
46429;SDS011;32131;53.454;-6.180;2022-09-03T00:29:14;7.03;;;3.97;;
46429;SDS011;32131;53.454;-6.180;2022-09-03T00:31:47;11.20;;;4.43;;
46429;SDS011;32131;53.454;-6.180;2022-09-03T00:34:20;10.00;;;3.72;;
46429;SDS011;32131;53.454;-6.180;2022-09-03T00:36:53;11.35;;;4.20;;
46429;SDS011;32131;53.454;-6.180;2022-09-03T00:39:22;8.80;;;4.68;;
46429;SDS011;32131;53.454;-6.180;2022-09-03T00:41:56;6.35;;;3.13;;
46429;SDS011;32131;53.454;-6.180;2022-09-03T00:44:47;7.90;;;3.15;;
46429;SDS011;32131;53.454;-6.180;2022-09-03T00:47:31;3.63;;;2.33;;
46429;SDS011;32131;53.454;-6.180;2022-09-03T00:50:08;4.17;;;2.43;;
46429;SDS011;32131;53.454;-6.180;2022-09-03T00:52:43;5.22;;;2.40;;
46429;SDS011;32131;53.454;-6.180;2022-09-03T00:55:26;4.72;;;2.40;;
46429;SDS011;32131;53.454;-6.180;2022-09-03T00:58:14;4.60;;;2.40;;
46429;SDS011;32131;53.454;-6.180;2022-09-03T01:00:57;4.20;;;2.00;;
46429;SDS011;32131;53.454;-6.180;2022-09-03T01:03:30;4.45;;;1.52;;
46429;SDS011;32131;53.454;-6.180;2022-09-03T01:06:12;5.13;;;2.03;;
46429;SDS011;32131;53.454;-6.180;2022-09-03T01:08:51;3.92;;;1.80;;
46429;SDS011;32131;53.454;-6.180;2022-09-03T01:11:40;6.93;;;1.88;;
46429;SDS011;32131;53.454;-6.180;2022-09-03T01:14:22;3.00;;;1.55;;
46429;SDS011;32131;53.454;-6.180;2022-09-03T01:17:00;3.30;;;1.80;;
46429;SDS011;32131;53.454;-6.180;2022-09-03T01:19:46;5.38;;;2.20;;
46429;SDS011;32131;53.454;-6.180;2022-09-03T01:22:38;3.83;;;2.05;;
46429;SDS011;32131;53.454;-6.180;2022-09-03T01:25:25;4.65;;;2.00;;
46429;SDS011;32131;53.454;-6.180;2022-09-03T01:28:10;4.30;;;2.03;;
46429;SDS011;32131;53.454;-6.180;2022-09-03T01:30:50;2.72;;;1.88;;
46429;SDS011;32131;53.454;-6.180;2022-09-03T01:33:26;5.03;;;1.90;;
46429;SDS011;32131;53.454;-6.180;2022-09-03T01:36:03;6.53;;;2.10;;
46429;SDS011;32131;53.454;-6.180;2022-09-03T01:38:39;5.82;;;2.03;;
46429;SDS011;32131;53.454;-6.180;2022-09-03T01:41:14;4.68;;;2.08;;
46429;SDS011;32131;53.454;-6.180;2022-09-03T01:44:13;6.63;;;2.38;;
46429;SDS011;32131;53.454;-6.180;2022-09-03T01:47:03;5.05;;;2.28;;
46429;SDS011;32131;53.454;-6.180;2022-09-03T01:49:39;10.05;;;2.28;;
46429;SDS011;32131;53.454;-6.180;2022-09-03T01:52:15;7.20;;;2.72;;
46429;SDS011;32131;53.454;-6.180;2022-09-03T01:54:50;7.07;;;2.10;;
46429;SDS011;32131;53.454;-6.180;2022-09-03T01:57:32;5.55;;;2.17;;
46429;SDS011;32131;53.454;-6.180;2022-09-03T02:00:15;7.57;;;2.63;;
46429;SDS011;32131;53.454;-6.180;2022-09-03T02:02:46;6.50;;;2.35;;
46429;SDS011;32131;53.454;-6.180;2022-09-03T02:05:17;10.63;;;2.70;;
46429;SDS011;32131;53.454;-6.180;2022-09-03T02:07:49;7.45;;;2.40;;
46429;SDS011;32131;53.454;-6.180;2022-09-03T02:10:24;3.95;;;1.95;;
46429;SDS011;32131;53.454;-6.180;2022-09-03T02:12:57;7.07;;;2.13;;
46429;SDS011;32131;53.454;-6.180;2022-09-03T02:15:30;6.15;;;2.03;;
46429;SDS011;32131;53.454;-6.180;2022-09-03T02:18:00;3.58;;;1.60;;
46429;SDS011;32131;53.454;-6.180;2022-09-03T02:20:30;4.90;;;1.45;;
46429;SDS011;32131;53.454;-6.180;2022-09-03T02:22:59;6.07;;;1.50;;
46429;SDS011;32131;53.454;-6.180;2022-09-03T02:25:28;3.53;;;1.42;;
46429;SDS011;32131;53.454;-6.180;2022-09-03T02:28:00;3.90;;;1.35;;
46429;SDS011;32131;53.454;-6.180;2022-09-03T02:30:30;4.00;;;1.00;;
46429;SDS011;32131;53.454;-6.180;2022-09-03T02:32:58;3.58;;;1.15;;
46429;SDS011;32131;53.454;-6.180;2022-09-03T02:35:27;7.47;;;1.15;;
46429;SDS011;32131;53.454;-6.180;2022-09-03T02:37:55;6.43;;;1.40;;
46429;SDS011;32131;53.454;-6.180;2022-09-03T02:40:23;2.67;;;1.15;;
46429;SDS011;32131;53.454;-6.180;2022-09-03T02:42:51;1.17;;;0.93;;
46429;SDS011;32131;53.454;-6.180;2022-09-03T02:45:22;5.18;;;1.23;;
46429;SDS011;32131;53.454;-6.180;2022-09-03T02:47:56;3.20;;;0.82;;
46429;SDS011;32131;53.454;-6.180;2022-09-03T02:50:26;3.63;;;1.42;;
46429;SDS011;32131;53.454;-6.180;2022-09-03T02:52:54;3.97;;;1.33;;
46429;SDS011;32131;53.454;-6.180;2022-09-03T02:55:22;2.35;;;1.23;;
46429;SDS011;32131;53.454;-6.180;2022-09-03T02:57:50;3.17;;;1.40;;
46429;SDS011;32131;53.454;-6.180;2022-09-03T03:00:18;2.67;;;0.85;;
46429;SDS011;32131;53.454;-6.180;2022-09-03T03:02:46;2.83;;;1.33;;
46429;SDS011;32131;53.454;-6.180;2022-09-03T03:05:17;3.55;;;1.13;;
46429;SDS011;32131;53.454;-6.180;2022-09-03T03:07:51;6.30;;;1.50;;
46429;SDS011;32131;53.454;-6.180;2022-09-03T03:10:19;7.20;;;1.60;;
46429;SDS011;32131;53.454;-6.180;2022-09-03T03:12:47;4.53;;;1.27;;
46429;SDS011;32131;53.454;-6.180;2022-09-03T03:15:16;4.03;;;1.17;;
46429;SDS011;32131;53.454;-6.180;2022-09-03T03:17:44;6.10;;;1.52;;
46429;SDS011;32131;53.454;-6.180;2022-09-03T03:20:12;5.40;;;1.13;;
46429;SDS011;32131;53.454;-6.180;2022-09-03T03:22:42;1.58;;;1.10;;
46429;SDS011;32131;53.454;-6.180;2022-09-03T03:25:10;0.77;;;0.65;;
46429;SDS011;32131;53.454;-6.180;2022-09-03T03:27:39;1.75;;;0.88;;
46429;SDS011;32131;53.454;-6.180;2022-09-03T03:30:08;4.68;;;0.98;;
46429;SDS011;32131;53.454;-6.180;2022-09-03T03:32:37;3.63;;;0.90;;
46429;SDS011;32131;53.454;-6.180;2022-09-03T03:35:06;1.75;;;1.05;;
46429;SDS011;32131;53.454;-6.180;2022-09-03T03:37:37;3.03;;;0.80;;
46429;SDS011;32131;53.454;-6.180;2022-09-03T03:40:07;1.35;;;0.75;;
46429;SDS011;32131;53.454;-6.180;2022-09-03T03:42:36;2.17;;;0.70;;
46429;SDS011;32131;53.454;-6.180;2022-09-03T03:45:04;2.10;;;0.80;;
46429;SDS011;32131;53.454;-6.180;2022-09-03T03:47:33;2.35;;;0.85;;
46429;SDS011;32131;53.454;-6.180;2022-09-03T03:50:01;1.48;;;0.70;;
46429;SDS011;32131;53.454;-6.180;2022-09-03T03:52:31;2.08;;;0.85;;
46429;SDS011;32131;53.454;-6.180;2022-09-03T03:54:59;0.77;;;0.60;;
46429;SDS011;32131;53.454;-6.180;2022-09-03T03:57:30;1.65;;;0.60;;
46429;SDS011;32131;53.454;-6.180;2022-09-03T03:59:58;1.55;;;0.80;;
46429;SDS011;32131;53.454;-6.180;2022-09-03T04:02:26;7.68;;;0.98;;
46429;SDS011;32131;53.454;-6.180;2022-09-03T04:04:54;6.97;;;0.82;;
46429;SDS011;32131;53.454;-6.180;2022-09-03T04:07:24;1.83;;;0.77;;
46429;SDS011;32131;53.454;-6.180;2022-09-03T04:09:52;1.58;;;0.90;;
46429;SDS011;32131;53.454;-6.180;2022-09-03T04:12:20;4.25;;;1.33;;
46429;SDS011;32131;53.454;-6.180;2022-09-03T04:14:49;4.28;;;1.10;;
46429;SDS011;32131;53.454;-6.180;2022-09-03T04:17:18;1.85;;;0.82;;
46429;SDS011;32131;53.454;-6.180;2022-09-03T04:19:50;2.65;;;0.85;;
46429;SDS011;32131;53.454;-6.180;2022-09-03T04:22:18;1.95;;;0.95;;
46429;SDS011;32131;53.454;-6.180;2022-09-03T04:24:46;3.30;;;0.80;;
46429;SDS011;32131;53.454;-6.180;2022-09-03T04:27:15;8.75;;;1.10;;
46429;SDS011;32131;53.454;-6.180;2022-09-03T04:29:43;1.17;;;0.73;;
46429;SDS011;32131;53.454;-6.180;2022-09-03T04:32:12;2.38;;;0.88;;
46429;SDS011;32131;53.454;-6.180;2022-09-03T04:34:58;3.30;;;0.98;;
46429;SDS011;32131;53.454;-6.180;2022-09-03T04:37:26;3.67;;;0.88;;
46429;SDS011;32131;53.454;-6.180;2022-09-03T04:39:54;4.07;;;1.10;;
46429;SDS011;32131;53.454;-6.180;2022-09-03T04:42:22;3.95;;;1.58;;
46429;SDS011;32131;53.454;-6.180;2022-09-03T04:44:50;1.13;;;0.63;;
46429;SDS011;32131;53.454;-6.180;2022-09-03T04:47:19;5.05;;;1.42;;
46429;SDS011;32131;53.454;-6.180;2022-09-03T04:49:47;5.68;;;1.00;;
46429;SDS011;32131;53.454;-6.180;2022-09-03T04:52:15;1.33;;;0.70;;
46429;SDS011;32131;53.454;-6.180;2022-09-03T04:54:44;3.83;;;1.10;;
46429;SDS011;32131;53.454;-6.180;2022-09-03T04:57:12;2.15;;;1.02;;
46429;SDS011;32131;53.454;-6.180;2022-09-03T04:59:41;2.05;;;0.90;;
46429;SDS011;32131;53.454;-6.180;2022-09-03T05:02:09;2.80;;;1.13;;
46429;SDS011;32131;53.454;-6.180;2022-09-03T05:04:41;1.67;;;0.80;;
46429;SDS011;32131;53.454;-6.180;2022-09-03T05:07:09;1.98;;;0.70;;
46429;SDS011;32131;53.454;-6.180;2022-09-03T05:09:38;7.38;;;1.40;;
46429;SDS011;32131;53.454;-6.180;2022-09-03T05:12:06;3.03;;;0.80;;
46429;SDS011;32131;53.454;-6.180;2022-09-03T05:14:34;2.65;;;0.90;;
46429;SDS011;32131;53.454;-6.180;2022-09-03T05:17:02;1.48;;;0.82;;
46429;SDS011;32131;53.454;-6.180;2022-09-03T05:19:30;3.15;;;1.10;;
46429;SDS011;32131;53.454;-6.180;2022-09-03T05:22:01;9.10;;;1.05;;
46429;SDS011;32131;53.454;-6.180;2022-09-03T05:24:29;1.40;;;0.85;;
46429;SDS011;32131;53.454;-6.180;2022-09-03T05:26:57;2.70;;;1.23;;
46429;SDS011;32131;53.454;-6.180;2022-09-03T05:29:25;2.55;;;1.30;;
46429;SDS011;32131;53.454;-6.180;2022-09-03T05:31:53;2.22;;;1.02;;
46429;SDS011;32131;53.454;-6.180;2022-09-03T05:34:21;3.10;;;1.10;;
46429;SDS011;32131;53.454;-6.180;2022-09-03T05:36:49;2.03;;;0.90;;
46429;SDS011;32131;53.454;-6.180;2022-09-03T05:39:19;2.13;;;1.20;;
46429;SDS011;32131;53.454;-6.180;2022-09-03T05:41:48;5.15;;;1.70;;
46429;SDS011;32131;53.454;-6.180;2022-09-03T05:44:18;3.10;;;1.40;;
46429;SDS011;32131;53.454;-6.180;2022-09-03T05:46:49;1.83;;;1.00;;
46429;SDS011;32131;53.454;-6.180;2022-09-03T05:49:19;1.52;;;1.00;;
46429;SDS011;32131;53.454;-6.180;2022-09-03T05:51:47;1.58;;;0.82;;
46429;SDS011;32131;53.454;-6.180;2022-09-03T05:54:15;1.95;;;1.00;;
46429;SDS011;32131;53.454;-6.180;2022-09-03T05:56:44;3.28;;;0.88;;
46429;SDS011;32131;53.454;-6.180;2022-09-03T05:59:12;2.20;;;0.68;;
46429;SDS011;32131;53.454;-6.180;2022-09-03T06:01:41;1.42;;;0.50;;
46429;SDS011;32131;53.454;-6.180;2022-09-03T06:04:16;1.83;;;0.80;;
46429;SDS011;32131;53.454;-6.180;2022-09-03T06:06:45;1.30;;;0.65;;
46429;SDS011;32131;53.454;-6.180;2022-09-03T06:09:15;4.15;;;0.82;;
46429;SDS011;32131;53.454;-6.180;2022-09-03T06:11:46;1.20;;;0.47;;
46429;SDS011;32131;53.454;-6.180;2022-09-03T06:14:16;0.82;;;0.47;;
46429;SDS011;32131;53.454;-6.180;2022-09-03T06:16:45;1.23;;;0.73;;
46429;SDS011;32131;53.454;-6.180;2022-09-03T06:19:15;2.03;;;0.52;;
46429;SDS011;32131;53.454;-6.180;2022-09-03T06:21:44;0.80;;;0.35;;
46429;SDS011;32131;53.454;-6.180;2022-09-03T06:24:14;1.00;;;0.40;;
46429;SDS011;32131;53.454;-6.180;2022-09-03T06:26:43;0.95;;;0.60;;
46429;SDS011;32131;53.454;-6.180;2022-09-03T06:29:13;1.33;;;0.57;;
46429;SDS011;32131;53.454;-6.180;2022-09-03T06:31:42;1.88;;;0.50;;
46429;SDS011;32131;53.454;-6.180;2022-09-03T06:34:10;1.27;;;0.52;;
46429;SDS011;32131;53.454;-6.180;2022-09-03T06:36:38;1.05;;;0.52;;
46429;SDS011;32131;53.454;-6.180;2022-09-03T06:39:07;6.38;;;0.98;;
46429;SDS011;32131;53.454;-6.180;2022-09-03T06:41:36;1.02;;;0.65;;
46429;SDS011;32131;53.454;-6.180;2022-09-03T06:44:06;3.05;;;0.45;;
46429;SDS011;32131;53.454;-6.180;2022-09-03T06:46:39;1.75;;;0.70;;
46429;SDS011;32131;53.454;-6.180;2022-09-03T06:49:09;1.30;;;0.50;;
46429;SDS011;32131;53.454;-6.180;2022-09-03T06:51:37;4.45;;;0.68;;
46429;SDS011;32131;53.454;-6.180;2022-09-03T06:54:06;0.80;;;0.40;;
46429;SDS011;32131;53.454;-6.180;2022-09-03T06:56:36;1.65;;;0.50;;
46429;SDS011;32131;53.454;-6.180;2022-09-03T06:59:07;4.57;;;0.47;;
46429;SDS011;32131;53.454;-6.180;2022-09-03T07:01:36;0.77;;;0.35;;
46429;SDS011;32131;53.454;-6.180;2022-09-03T07:04:11;1.00;;;0.50;;
46429;SDS011;32131;53.454;-6.180;2022-09-03T07:06:41;2.67;;;0.43;;
46429;SDS011;32131;53.454;-6.180;2022-09-03T07:09:11;1.52;;;0.50;;
46429;SDS011;32131;53.454;-6.180;2022-09-03T07:11:41;2.03;;;0.50;;
46429;SDS011;32131;53.454;-6.180;2022-09-03T07:14:14;2.28;;;0.40;;
46429;SDS011;32131;53.454;-6.180;2022-09-03T07:16:44;3.25;;;0.40;;
46429;SDS011;32131;53.454;-6.180;2022-09-03T07:19:22;2.08;;;0.65;;
46429;SDS011;32131;53.454;-6.180;2022-09-03T07:21:50;1.25;;;0.68;;
46429;SDS011;32131;53.454;-6.180;2022-09-03T07:24:28;0.80;;;0.40;;
46429;SDS011;32131;53.454;-6.180;2022-09-03T07:26:58;2.20;;;0.50;;
46429;SDS011;32131;53.454;-6.180;2022-09-03T07:29:27;1.23;;;0.32;;
46429;SDS011;32131;53.454;-6.180;2022-09-03T07:31:55;1.30;;;0.68;;
46429;SDS011;32131;53.454;-6.180;2022-09-03T07:34:25;4.65;;;0.50;;
46429;SDS011;32131;53.454;-6.180;2022-09-03T07:36:55;3.67;;;0.47;;
46429;SDS011;32131;53.454;-6.180;2022-09-03T07:39:23;1.00;;;0.50;;
46429;SDS011;32131;53.454;-6.180;2022-09-03T07:41:51;0.55;;;0.30;;
46429;SDS011;32131;53.454;-6.180;2022-09-03T07:44:20;1.08;;;0.43;;
46429;SDS011;32131;53.454;-6.180;2022-09-03T07:46:49;1.58;;;0.38;;
46429;SDS011;32131;53.454;-6.180;2022-09-03T07:49:18;2.25;;;0.52;;
46429;SDS011;32131;53.454;-6.180;2022-09-03T07:51:49;5.40;;;0.40;;
46429;SDS011;32131;53.454;-6.180;2022-09-03T07:54:20;0.68;;;0.38;;
46429;SDS011;32131;53.454;-6.180;2022-09-03T07:56:49;0.63;;;0.20;;
46429;SDS011;32131;53.454;-6.180;2022-09-03T07:59:17;2.15;;;0.52;;
46429;SDS011;32131;53.454;-6.180;2022-09-03T08:01:47;0.50;;;0.28;;
46429;SDS011;32131;53.454;-6.180;2022-09-03T08:04:17;0.77;;;0.40;;
46429;SDS011;32131;53.454;-6.180;2022-09-03T08:06:45;3.60;;;0.50;;
46429;SDS011;32131;53.454;-6.180;2022-09-03T08:09:15;2.10;;;0.32;;
46429;SDS011;32131;53.454;-6.180;2022-09-03T08:11:44;1.38;;;0.40;;
46429;SDS011;32131;53.454;-6.180;2022-09-03T08:14:13;0.80;;;0.30;;
46429;SDS011;32131;53.454;-6.180;2022-09-03T08:16:42;2.05;;;0.60;;
46429;SDS011;32131;53.454;-6.180;2022-09-03T08:19:14;1.15;;;0.47;;
46429;SDS011;32131;53.454;-6.180;2022-09-03T08:21:44;1.98;;;0.43;;
46429;SDS011;32131;53.454;-6.180;2022-09-03T08:24:15;3.47;;;0.63;;
46429;SDS011;32131;53.454;-6.180;2022-09-03T08:26:46;0.90;;;0.50;;
46429;SDS011;32131;53.454;-6.180;2022-09-03T08:29:18;1.98;;;0.70;;
46429;SDS011;32131;53.454;-6.180;2022-09-03T08:31:46;2.38;;;0.77;;
46429;SDS011;32131;53.454;-6.180;2022-09-03T08:34:15;2.92;;;0.77;;
46429;SDS011;32131;53.454;-6.180;2022-09-03T08:36:43;3.78;;;0.60;;
46429;SDS011;32131;53.454;-6.180;2022-09-03T08:39:15;1.52;;;0.70;;
46429;SDS011;32131;53.454;-6.180;2022-09-03T08:44:54;2.38;;;0.73;;
46429;SDS011;32131;53.454;-6.180;2022-09-03T08:47:25;2.03;;;0.45;;
46429;SDS011;32131;53.454;-6.180;2022-09-03T08:50:00;1.33;;;0.30;;
46429;SDS011;32131;53.454;-6.180;2022-09-03T08:52:32;1.58;;;0.50;;
46429;SDS011;32131;53.454;-6.180;2022-09-03T08:55:15;1.75;;;0.52;;
46429;SDS011;32131;53.454;-6.180;2022-09-03T08:57:47;1.02;;;0.50;;
46429;SDS011;32131;53.454;-6.180;2022-09-03T09:00:17;1.25;;;0.38;;
46429;SDS011;32131;53.454;-6.180;2022-09-03T09:02:53;0.50;;;0.35;;
46429;SDS011;32131;53.454;-6.180;2022-09-03T09:05:37;1.60;;;0.50;;
46429;SDS011;32131;53.454;-6.180;2022-09-03T09:08:15;1.70;;;0.40;;
46429;SDS011;32131;53.454;-6.180;2022-09-03T09:10:57;1.20;;;0.50;;
46429;SDS011;32131;53.454;-6.180;2022-09-03T09:13:37;2.67;;;0.30;;
46429;SDS011;32131;53.454;-6.180;2022-09-03T09:16:12;0.65;;;0.43;;
46429;SDS011;32131;53.454;-6.180;2022-09-03T09:19:01;0.52;;;0.30;;
46429;SDS011;32131;53.454;-6.180;2022-09-03T09:21:40;0.68;;;0.45;;
46429;SDS011;32131;53.454;-6.180;2022-09-03T09:24:16;1.10;;;0.52;;
46429;SDS011;32131;53.454;-6.180;2022-09-03T09:26:50;0.60;;;0.40;;
46429;SDS011;32131;53.454;-6.180;2022-09-03T09:29:25;0.82;;;0.35;;
46429;SDS011;32131;53.454;-6.180;2022-09-03T09:31:58;1.42;;;0.40;;
46429;SDS011;32131;53.454;-6.180;2022-09-03T09:34:35;0.85;;;0.43;;
46429;SDS011;32131;53.454;-6.180;2022-09-03T09:37:08;2.20;;;0.47;;
46429;SDS011;32131;53.454;-6.180;2022-09-03T09:39:40;1.23;;;0.80;;
46429;SDS011;32131;53.454;-6.180;2022-09-03T09:42:22;1.65;;;0.60;;
46429;SDS011;32131;53.454;-6.180;2022-09-03T09:44:51;0.75;;;0.35;;
46429;SDS011;32131;53.454;-6.180;2022-09-03T09:47:23;1.40;;;0.40;;
46429;SDS011;32131;53.454;-6.180;2022-09-03T09:49:54;1.02;;;0.43;;
46429;SDS011;32131;53.454;-6.180;2022-09-03T09:52:24;1.17;;;0.43;;
46429;SDS011;32131;53.454;-6.180;2022-09-03T09:55:05;0.43;;;0.30;;
46429;SDS011;32131;53.454;-6.180;2022-09-03T09:57:39;0.82;;;0.40;;
46429;SDS011;32131;53.454;-6.180;2022-09-03T10:00:09;1.70;;;0.40;;
46429;SDS011;32131;53.454;-6.180;2022-09-03T10:02:40;2.35;;;0.52;;
46429;SDS011;32131;53.454;-6.180;2022-09-03T10:05:19;1.15;;;0.50;;
46429;SDS011;32131;53.454;-6.180;2022-09-03T10:07:53;1.02;;;0.50;;
46429;SDS011;32131;53.454;-6.180;2022-09-03T10:10:25;1.23;;;0.52;;
46429;SDS011;32131;53.454;-6.180;2022-09-03T10:12:57;1.15;;;0.50;;
46429;SDS011;32131;53.454;-6.180;2022-09-03T10:15:31;2.47;;;0.40;;
46429;SDS011;32131;53.454;-6.180;2022-09-03T10:18:08;2.28;;;0.40;;
46429;SDS011;32131;53.454;-6.180;2022-09-03T10:20:44;1.10;;;0.40;;
46429;SDS011;32131;53.454;-6.180;2022-09-03T10:23:25;1.70;;;0.45;;
46429;SDS011;32131;53.454;-6.180;2022-09-03T10:25:59;3.17;;;0.47;;
46429;SDS011;32131;53.454;-6.180;2022-09-03T10:28:34;1.90;;;0.50;;
46429;SDS011;32131;53.454;-6.180;2022-09-03T10:34:09;2.05;;;0.40;;
46429;SDS011;32131;53.454;-6.180;2022-09-03T10:36:47;1.02;;;0.40;;
46429;SDS011;32131;53.454;-6.180;2022-09-03T10:39:24;1.95;;;0.50;;
46429;SDS011;32131;53.454;-6.180;2022-09-03T10:42:12;1.60;;;0.38;;
46429;SDS011;32131;53.454;-6.180;2022-09-03T10:44:53;2.13;;;0.57;;
46429;SDS011;32131;53.454;-6.180;2022-09-03T10:47:40;1.20;;;0.50;;
46429;SDS011;32131;53.454;-6.180;2022-09-03T10:50:24;0.55;;;0.38;;
46429;SDS011;32131;53.454;-6.180;2022-09-03T10:53:00;1.13;;;0.50;;
46429;SDS011;32131;53.454;-6.180;2022-09-03T10:55:43;1.08;;;0.60;;
46429;SDS011;32131;53.454;-6.180;2022-09-03T10:58:28;0.88;;;0.50;;
46429;SDS011;32131;53.454;-6.180;2022-09-03T11:01:08;1.83;;;0.60;;
46429;SDS011;32131;53.454;-6.180;2022-09-03T11:03:47;2.05;;;0.60;;
46429;SDS011;32131;53.454;-6.180;2022-09-03T11:06:23;0.40;;;0.28;;
46429;SDS011;32131;53.454;-6.180;2022-09-03T11:08:56;1.27;;;0.43;;
46429;SDS011;32131;53.454;-6.180;2022-09-03T11:11:32;2.30;;;0.40;;
46429;SDS011;32131;53.454;-6.180;2022-09-03T11:14:06;1.02;;;0.40;;
46429;SDS011;32131;53.454;-6.180;2022-09-03T11:16:38;0.95;;;0.40;;
46429;SDS011;32131;53.454;-6.180;2022-09-03T11:19:11;0.93;;;0.45;;
46429;SDS011;32131;53.454;-6.180;2022-09-03T11:21:44;4.55;;;0.60;;
46429;SDS011;32131;53.454;-6.180;2022-09-03T11:24:16;0.95;;;0.30;;
46429;SDS011;32131;53.454;-6.180;2022-09-03T11:26:49;2.83;;;0.80;;
46429;SDS011;32131;53.454;-6.180;2022-09-03T11:29:23;1.27;;;0.63;;
46429;SDS011;32131;53.454;-6.180;2022-09-03T11:32:03;1.02;;;0.60;;
46429;SDS011;32131;53.454;-6.180;2022-09-03T11:34:44;1.75;;;0.73;;
46429;SDS011;32131;53.454;-6.180;2022-09-03T11:37:15;3.05;;;0.90;;
46429;SDS011;32131;53.454;-6.180;2022-09-03T11:39:52;1.63;;;0.80;;
46429;SDS011;32131;53.454;-6.180;2022-09-03T11:42:27;2.80;;;1.05;;
46429;SDS011;32131;53.454;-6.180;2022-09-03T11:44:59;6.13;;;0.63;;
46429;SDS011;32131;53.454;-6.180;2022-09-03T11:47:41;1.23;;;0.77;;
46429;SDS011;32131;53.454;-6.180;2022-09-03T11:50:15;1.20;;;0.60;;
46429;SDS011;32131;53.454;-6.180;2022-09-03T11:52:47;3.45;;;0.93;;
46429;SDS011;32131;53.454;-6.180;2022-09-03T11:55:23;1.95;;;0.80;;
46429;SDS011;32131;53.454;-6.180;2022-09-03T11:58:10;2.53;;;1.00;;
46429;SDS011;32131;53.454;-6.180;2022-09-03T12:00:40;1.75;;;0.80;;
46429;SDS011;32131;53.454;-6.180;2022-09-03T12:03:13;2.60;;;1.05;;
46429;SDS011;32131;53.454;-6.180;2022-09-03T12:05:47;2.13;;;0.70;;
46429;SDS011;32131;53.454;-6.180;2022-09-03T12:08:39;2.80;;;0.90;;
46429;SDS011;32131;53.454;-6.180;2022-09-03T12:14:22;1.42;;;0.80;;
46429;SDS011;32131;53.454;-6.180;2022-09-03T12:17:02;2.22;;;0.90;;
46429;SDS011;32131;53.454;-6.180;2022-09-03T12:19:44;1.10;;;0.70;;
46429;SDS011;32131;53.454;-6.180;2022-09-03T12:22:18;1.25;;;0.70;;
46429;SDS011;32131;53.454;-6.180;2022-09-03T12:24:49;2.50;;;1.00;;
46429;SDS011;32131;53.454;-6.180;2022-09-03T12:27:18;1.83;;;1.00;;
46429;SDS011;32131;53.454;-6.180;2022-09-03T12:29:50;2.92;;;1.00;;
46429;SDS011;32131;53.454;-6.180;2022-09-03T12:32:23;5.70;;;1.55;;
46429;SDS011;32131;53.454;-6.180;2022-09-03T12:34:54;3.15;;;1.25;;
46429;SDS011;32131;53.454;-6.180;2022-09-03T12:37:23;10.13;;;1.48;;
46429;SDS011;32131;53.454;-6.180;2022-09-03T12:40:16;3.33;;;1.60;;
46429;SDS011;32131;53.454;-6.180;2022-09-03T12:42:47;6.05;;;1.50;;
46429;SDS011;32131;53.454;-6.180;2022-09-03T12:45:18;4.22;;;1.67;;
46429;SDS011;32131;53.454;-6.180;2022-09-03T12:47:47;4.82;;;1.65;;
46429;SDS011;32131;53.454;-6.180;2022-09-03T12:50:19;14.32;;;2.58;;
46429;SDS011;32131;53.454;-6.180;2022-09-03T12:52:48;3.67;;;2.28;;
46429;SDS011;32131;53.454;-6.180;2022-09-03T12:55:30;3.47;;;1.55;;
46429;SDS011;32131;53.454;-6.180;2022-09-03T12:58:04;4.25;;;2.00;;
46429;SDS011;32131;53.454;-6.180;2022-09-03T13:00:40;4.40;;;1.70;;
46429;SDS011;32131;53.454;-6.180;2022-09-03T13:03:14;2.85;;;1.80;;
46429;SDS011;32131;53.454;-6.180;2022-09-03T13:05:48;3.75;;;1.92;;
46429;SDS011;32131;53.454;-6.180;2022-09-03T13:08:20;3.63;;;2.10;;
46429;SDS011;32131;53.454;-6.180;2022-09-03T13:10:51;8.25;;;2.05;;
46429;SDS011;32131;53.454;-6.180;2022-09-03T13:13:22;8.05;;;2.33;;
46429;SDS011;32131;53.454;-6.180;2022-09-03T13:18:42;12.50;;;2.88;;
46429;SDS011;32131;53.454;-6.180;2022-09-03T13:21:20;12.13;;;3.15;;
46429;SDS011;32131;53.454;-6.180;2022-09-03T13:27:05;7.07;;;3.13;;
46429;SDS011;32131;53.454;-6.180;2022-09-03T13:29:51;10.60;;;2.90;;
46429;SDS011;32131;53.454;-6.180;2022-09-03T13:32:31;17.95;;;3.45;;
46429;SDS011;32131;53.454;-6.180;2022-09-03T13:35:09;14.43;;;2.60;;
46429;SDS011;32131;53.454;-6.180;2022-09-03T13:37:46;5.93;;;2.63;;
46429;SDS011;32131;53.454;-6.180;2022-09-03T13:40:23;7.78;;;2.15;;
46429;SDS011;32131;53.454;-6.180;2022-09-03T13:43:00;8.30;;;2.67;;
46429;SDS011;32131;53.454;-6.180;2022-09-03T13:45:36;12.77;;;3.05;;
46429;SDS011;32131;53.454;-6.180;2022-09-03T13:48:09;8.32;;;2.72;;
46429;SDS011;32131;53.454;-6.180;2022-09-03T13:50:59;6.93;;;2.67;;
46429;SDS011;32131;53.454;-6.180;2022-09-03T13:53:41;7.07;;;2.78;;
46429;SDS011;32131;53.454;-6.180;2022-09-03T13:56:20;11.05;;;2.88;;
46429;SDS011;32131;53.454;-6.180;2022-09-03T13:58:59;11.45;;;3.03;;
46429;SDS011;32131;53.454;-6.180;2022-09-03T14:01:40;7.88;;;2.22;;
46429;SDS011;32131;53.454;-6.180;2022-09-03T14:04:20;5.15;;;2.95;;
46429;SDS011;32131;53.454;-6.180;2022-09-03T14:06:53;9.70;;;2.30;;
46429;SDS011;32131;53.454;-6.180;2022-09-03T14:09:32;9.30;;;2.67;;
46429;SDS011;32131;53.454;-6.180;2022-09-03T14:12:12;3.47;;;2.25;;
46429;SDS011;32131;53.454;-6.180;2022-09-03T14:14:51;4.88;;;1.98;;
46429;SDS011;32131;53.454;-6.180;2022-09-03T14:17:27;10.18;;;2.33;;
46429;SDS011;32131;53.454;-6.180;2022-09-03T14:20:03;5.40;;;1.95;;
46429;SDS011;32131;53.454;-6.180;2022-09-03T14:22:38;10.73;;;2.05;;
46429;SDS011;32131;53.454;-6.180;2022-09-03T14:25:19;10.90;;;2.22;;
46429;SDS011;32131;53.454;-6.180;2022-09-03T14:27:48;8.27;;;1.63;;
46429;SDS011;32131;53.454;-6.180;2022-09-03T14:30:18;8.32;;;2.00;;
46429;SDS011;32131;53.454;-6.180;2022-09-03T14:32:57;10.02;;;2.60;;
46429;SDS011;32131;53.454;-6.180;2022-09-03T14:35:37;3.78;;;1.55;;
46429;SDS011;32131;53.454;-6.180;2022-09-03T14:41:34;11.32;;;2.25;;
46429;SDS011;32131;53.454;-6.180;2022-09-03T14:44:17;15.15;;;2.80;;
46429;SDS011;32131;53.454;-6.180;2022-09-03T14:47:04;8.75;;;2.72;;
46429;SDS011;32131;53.454;-6.180;2022-09-03T14:49:45;13.05;;;2.25;;
46429;SDS011;32131;53.454;-6.180;2022-09-03T14:52:35;8.25;;;2.78;;
46429;SDS011;32131;53.454;-6.180;2022-09-03T14:55:24;8.77;;;2.85;;
46429;SDS011;32131;53.454;-6.180;2022-09-03T14:58:13;16.48;;;4.05;;
46429;SDS011;32131;53.454;-6.180;2022-09-03T15:00:52;12.70;;;4.07;;
46429;SDS011;32131;53.454;-6.180;2022-09-03T15:03:30;13.27;;;3.65;;
46429;SDS011;32131;53.454;-6.180;2022-09-03T15:06:22;23.85;;;3.85;;
46429;SDS011;32131;53.454;-6.180;2022-09-03T15:09:08;12.45;;;3.13;;
46429;SDS011;32131;53.454;-6.180;2022-09-03T15:11:47;12.13;;;3.40;;
46429;SDS011;32131;53.454;-6.180;2022-09-03T15:14:21;8.73;;;3.55;;
46429;SDS011;32131;53.454;-6.180;2022-09-03T15:16:55;13.27;;;3.15;;
46429;SDS011;32131;53.454;-6.180;2022-09-03T15:19:41;7.65;;;2.47;;
46429;SDS011;32131;53.454;-6.180;2022-09-03T15:22:21;11.70;;;2.85;;
46429;SDS011;32131;53.454;-6.180;2022-09-03T15:25:04;11.07;;;2.92;;
46429;SDS011;32131;53.454;-6.180;2022-09-03T15:27:51;8.93;;;2.83;;
46429;SDS011;32131;53.454;-6.180;2022-09-03T15:30:32;8.68;;;2.50;;